| time (UTC) | temp C | wind direction | speed KPH | gust KPH | rain 1hr cm | rain 24hr cm | rain mn cm | humidity % | barometer mb |
| 20260906172517 | 26 | 72 | 1.6 | 1.6 | 0.00 | 0.00 | 0.00 | 77 | 1019.7 |
| 20260906172012 | 26 | 92 | 1.6 | 1.6 | 0.00 | 0.00 | 0.00 | 77 | 1019.7 |
| 20260906171507 | 26 | 90 | 1.6 | 1.6 | 0.00 | 0.00 | 0.00 | 77 | 1019.7 |
| 20260906171002 | 26 | 91 | 1.6 | 3.2 | 0.00 | 0.00 | 0.00 | 77 | 1019.8 |
| 20260906170458 | 26 | 109 | 4.8 | 9.7 | 0.00 | 0.00 | 0.00 | 76 | 1019.5 |
| 20260906165955 | 26 | 107 | 4.8 | 4.8 | 0.00 | 0.00 | 0.00 | 75 | 1019.8 |
| 20260906165454 | 27 | 97 | 3.2 | 3.2 | 0.00 | 0.00 | 0.00 | 75 | 1019.6 |
| 20260906164949 | 27 | 51 | 3.2 | 4.8 | 0.00 | 0.00 | 0.00 | 75 | 1019.8 |
| 20260906164448 | 27 | 112 | 1.6 | 3.2 | 0.00 | 0.00 | 0.00 | 74 | 1019.7 |
| 20260906163945 | 27 | 126 | 4.8 | 8.0 | 0.00 | 0.00 | 0.00 | 74 | 1019.6 |
| 20260906163440 | 27 | 93 | 1.6 | 1.6 | 0.00 | 0.00 | 0.00 | 73 | 1019.6 |
| 20260906162938 | 27 | 111 | 3.2 | 4.8 | 0.00 | 0.00 | 0.00 | 72 | 1019.6 |
| 20260906162431 | 27 | 56 | 1.6 | 1.6 | 0.00 | 0.00 | 0.00 | 73 | 1019.8 |
| 20260906161927 | 27 | 93 | 1.6 | 3.2 | 0.00 | 0.00 | 0.00 | 73 | 1019.5 |
| 20260906161426 | 27 | 64 | 3.2 | 3.2 | 0.00 | 0.00 | 0.00 | 73 | 1019.6 |
| 20260906160925 | 27 | 97 | 1.6 | 3.2 | 0.00 | 0.00 | 0.00 | 74 | 1019.8 |
| 20260906160418 | 27 | 81 | 1.6 | 3.2 | 0.00 | 0.00 | 0.00 | 73 | 1019.7 |
| 20260906155917 | 27 | 84 | 0.0 | 0.0 | 0.00 | 0.00 | 0.00 | 73 | 1020.0 |
| 20260906155410 | 27 | 109 | 3.2 | 4.8 | 0.00 | 0.00 | 0.00 | 73 | 1019.9 |
| 20260906154907 | 27 | 87 | 1.6 | 1.6 | 0.00 | 0.00 | 0.00 | 73 | 1019.9 |
| 20260906154401 | 26 | 85 | 0.0 | 1.6 | 0.00 | 0.00 | 0.00 | 76 | 1019.9 |
| 20260906153900 | 27 | 69 | 1.6 | 1.6 | 0.00 | 0.00 | 0.00 | 75 | 1019.8 |
| 20260906153359 | 27 | 97 | 1.6 | 1.6 | 0.00 | 0.00 | 0.00 | 74 | 1019.9 |
| 20260906152854 | 26 | 106 | 1.6 | 1.6 | 0.00 | 0.00 | 0.00 | 74 | 1019.8 |
| 20260906152349 | 27 | 126 | 3.2 | 3.2 | 0.00 | 0.00 | 0.00 | 74 | 1020.0 |
| 20260906151848 | 26 | 74 | 1.6 | 3.2 | 0.00 | 0.00 | 0.00 | 74 | 1020.2 |
| 20260906151344 | 26 | 140 | 3.2 | 3.2 | 0.00 | 0.00 | 0.00 | 74 | 1020.0 |
| 20260906150840 | 26 | 113 | 1.6 | 1.6 | 0.00 | 0.00 | 0.00 | 75 | 1020.1 |
| 20260906150335 | 26 | 115 | 1.6 | 1.6 | 0.00 | 0.00 | 0.00 | 76 | 1020.0 |
| 20260906145834 | 26 | 155 | 1.6 | 3.2 | 0.00 | 0.00 | 0.00 | 77 | 1020.0 |
| 20260906145333 | 25 | 121 | 1.6 | 3.2 | 0.00 | 0.00 | 0.00 | 78 | 1019.9 |
| 20260906144828 | 25 | 69 | 1.6 | 1.6 | 0.00 | 0.00 | 0.00 | 80 | 1020.1 |
| 20260906144323 | 25 | 89 | 1.6 | 1.6 | 0.00 | 0.00 | 0.00 | 81 | 1020.0 |
| 20260906143823 | 24 | 101 | 0.0 | 0.0 | 0.00 | 0.00 | 0.00 | 83 | 1020.0 |
| 20260906143319 | 24 | 181 | 8.0 | 9.7 | 0.00 | 0.00 | 0.00 | 82 | 1020.0 |
| 20260906142815 | 24 | 171 | 1.6 | 1.6 | 0.00 | 0.00 | 0.00 | 82 | 1020.0 |
| 20260906142309 | 24 | 112 | 1.6 | 3.2 | 0.00 | 0.00 | 0.00 | 82 | 1020.0 |
| 20260906141809 | 24 | 121 | 4.8 | 8.0 | 0.00 | 0.00 | 0.00 | 82 | 1019.8 |
| 20260906141304 | 24 | 183 | 4.8 | 4.8 | 0.00 | 0.00 | 0.00 | 82 | 1019.9 |
| 20260906140802 | 24 | 101 | 1.6 | 3.2 | 0.00 | 0.00 | 0.00 | 83 | 1020.1 |
| 20260906140257 | 24 | 129 | 3.2 | 3.2 | 0.00 | 0.00 | 0.00 | 83 | 1020.0 |
| 20260906135755 | 24 | 91 | 1.6 | 1.6 | 0.00 | 0.00 | 0.00 | 83 | 1020.0 |
| 20260906135250 | 24 | 85 | 1.6 | 1.6 | 0.00 | 0.00 | 0.00 | 83 | 1020.0 |
| 20260906134746 | 23 | 109 | 1.6 | 1.6 | 0.00 | 0.00 | 0.00 | 85 | 1020.0 |
| 20260906134241 | 23 | 109 | 1.6 | 1.6 | 0.00 | 0.00 | 0.00 | 85 | 1020.2 |
| 20260906133736 | 23 | 99 | 0.0 | 1.6 | 0.00 | 0.00 | 0.00 | 85 | 1020.1 |
| 20260906133232 | 23 | 99 | 0.0 | 1.6 | 0.00 | 0.00 | 0.00 | 86 | 1020.1 |
| 20260906132727 | 23 | 118 | 0.0 | 0.0 | 0.00 | 0.00 | 0.00 | 86 | 1019.8 |
| 20260906132222 | 23 | 118 | 0.0 | 0.0 | 0.00 | 0.00 | 0.00 | 87 | 1019.8 |
| 20260906131718 | 22 | 118 | 0.0 | 0.0 | 0.00 | 0.00 | 0.00 | 88 | 1020.0 |
| 20260906131213 | 22 | 112 | 0.0 | 0.0 | 0.00 | 0.00 | 0.00 | 88 | 1020.1 |
| 20260906130708 | 22 | 112 | 0.0 | 0.0 | 0.00 | 0.00 | 0.00 | 88 | 1020.1 |
| 20260906130203 | 22 | 112 | 0.0 | 0.0 | 0.00 | 0.00 | 0.00 | 89 | 1019.9 |
| 20260906125701 | 22 | 112 | 0.0 | 0.0 | 0.00 | 0.00 | 0.00 | 89 | 1020.0 |
| 20260906125200 | 22 | 112 | 0.0 | 0.0 | 0.00 | 0.00 | 0.00 | 89 | 1019.8 |
| 20260906124655 | 22 | 112 | 0.0 | 0.0 | 0.00 | 0.00 | 0.00 | 90 | 1019.7 |
| 20260906124150 | 22 | 112 | 0.0 | 0.0 | 0.00 | 0.00 | 0.00 | 90 | 1019.5 |
| 20260906123649 | 22 | 112 | 0.0 | 0.0 | 0.00 | 0.00 | 0.00 | 90 | 1019.5 |
| 20260906123145 | 22 | 112 | 0.0 | 0.0 | 0.00 | 0.00 | 0.00 | 90 | 1019.6 |
| 20260906122644 | 22 | 112 | 1.6 | 1.6 | 0.00 | 0.00 | 0.00 | 90 | 1019.3 |
| 20260906122140 | 21 | 113 | 0.0 | 1.6 | 0.00 | 0.00 | 0.00 | 91 | 1019.4 |
| 20260906121636 | 21 | 97 | 0.0 | 0.0 | 0.00 | 0.00 | 0.00 | 91 | 1019.2 |
| 20260906121132 | 21 | 90 | 0.0 | 0.0 | 0.00 | 0.00 | 0.00 | 91 | 1019.1 |
| 20260906120627 | 21 | 95 | 1.6 | 1.6 | 0.00 | 0.00 | 0.00 | 91 | 1019.2 |
| 20260906120124 | 21 | 91 | 1.6 | 1.6 | 0.00 | 0.00 | 0.00 | 91 | 1019.2 |
| 20260906115619 | 21 | 91 | 1.6 | 3.2 | 0.00 | 0.00 | 0.00 | 91 | 1019.0 |
| 20260906115114 | 21 | 91 | 1.6 | 1.6 | 0.00 | 0.00 | 0.00 | 91 | 1019.0 |
| 20260906114608 | 21 | 92 | 0.0 | 1.6 | 0.00 | 0.00 | 0.00 | 91 | 1018.9 |
| 20260906114103 | 21 | 83 | 1.6 | 1.6 | 0.00 | 0.00 | 0.00 | 91 | 1018.7 |
| 20260906113602 | 21 | 95 | 0.0 | 0.0 | 0.00 | 0.00 | 0.00 | 91 | 1018.6 |
| 20260906113057 | 21 | 109 | 0.0 | 1.6 | 0.00 | 0.00 | 0.00 | 91 | 1018.6 |
| 20260906112552 | 21 | 109 | 1.6 | 1.6 | 0.00 | 0.00 | 0.00 | 91 | 1018.9 |
| 20260906112048 | 21 | 90 | 1.6 | 1.6 | 0.00 | 0.00 | 0.00 | 91 | 1018.8 |
| 20260906111548 | 21 | 93 | 1.6 | 1.6 | 0.00 | 0.00 | 0.00 | 90 | 1018.8 |
| 20260906111043 | 21 | 89 | 0.0 | 1.6 | 0.00 | 0.00 | 0.00 | 90 | 1018.8 |
| 20260906110543 | 22 | 89 | 1.6 | 1.6 | 0.00 | 0.00 | 0.00 | 90 | 1018.9 |
| 20260906110042 | 22 | 86 | 0.0 | 1.6 | 0.00 | 0.00 | 0.00 | 90 | 1019.0 |
| 20260906105537 | 22 | 86 | 0.0 | 0.0 | 0.00 | 0.00 | 0.00 | 90 | 1018.9 |
| 20260906105033 | 22 | 87 | 0.0 | 0.0 | 0.00 | 0.00 | 0.00 | 90 | 1019.1 |
| 20260906104531 | 22 | 91 | 0.0 | 0.0 | 0.00 | 0.00 | 0.00 | 90 | 1019.1 |
| 20260906104026 | 22 | 92 | 1.6 | 1.6 | 0.00 | 0.00 | 0.00 | 90 | 1019.1 |
| 20260906103525 | 22 | 95 | 1.6 | 3.2 | 0.00 | 0.00 | 0.00 | 90 | 1019.0 |
| 20260906103020 | 22 | 129 | 1.6 | 1.6 | 0.00 | 0.00 | 0.00 | 90 | 1019.2 |
| 20260906102520 | 22 | 129 | 0.0 | 0.0 | 0.00 | 0.00 | 0.00 | 90 | 1019.0 |
| 20260906102015 | 22 | 129 | 0.0 | 0.0 | 0.00 | 0.00 | 0.00 | 90 | 1019.0 |
| 20260906101509 | 22 | 131 | 1.6 | 1.6 | 0.00 | 0.00 | 0.00 | 90 | 1019.1 |
| 20260906101004 | 22 | 99 | 1.6 | 1.6 | 0.00 | 0.00 | 0.00 | 90 | 1018.8 |
| 20260906100500 | 22 | 88 | 0.0 | 0.0 | 0.00 | 0.00 | 0.00 | 90 | 1019.0 |
| 20260906095954 | 22 | 96 | 0.0 | 0.0 | 0.00 | 0.00 | 0.00 | 89 | 1019.1 |
| 20260906095449 | 22 | 97 | 0.0 | 1.6 | 0.00 | 0.00 | 0.00 | 89 | 1019.0 |
| 20260906094944 | 22 | 99 | 1.6 | 1.6 | 0.00 | 0.00 | 0.00 | 89 | 1019.2 |
| 20260906094444 | 22 | 97 | 0.0 | 0.0 | 0.00 | 0.00 | 0.00 | 89 | 1019.0 |
| 20260906093940 | 22 | 73 | 0.0 | 0.0 | 0.00 | 0.00 | 0.00 | 89 | 1019.0 |
| 20260906093436 | 22 | 81 | 0.0 | 0.0 | 0.00 | 0.00 | 0.00 | 89 | 1018.8 |
| 20260906092935 | 22 | 81 | 0.0 | 0.0 | 0.00 | 0.00 | 0.00 | 89 | 1018.7 |
| 20260906092430 | 22 | 84 | 0.0 | 0.0 | 0.00 | 0.00 | 0.00 | 89 | 1018.6 |
| 20260906091925 | 22 | 95 | 0.0 | 0.0 | 0.00 | 0.00 | 0.00 | 89 | 1018.7 |
| 20260906091421 | 22 | 99 | 0.0 | 0.0 | 0.00 | 0.00 | 0.00 | 89 | 1018.7 |
| 20260906090917 | 22 | 87 | 0.0 | 0.0 | 0.00 | 0.00 | 0.00 | 89 | 1018.5 |
| 20260906090412 | 22 | 91 | 0.0 | 0.0 | 0.00 | 0.00 | 0.00 | 89 | 1018.5 |
| 20260906085906 | 22 | 79 | 1.6 | 1.6 | 0.00 | 0.00 | 0.00 | 88 | 1018.4 |
| 20260906085400 | 22 | 99 | 1.6 | 1.6 | 0.00 | 0.00 | 0.00 | 88 | 1018.4 |
| 20260906084859 | 22 | 90 | 0.0 | 0.0 | 0.00 | 0.00 | 0.00 | 88 | 1018.3 |
| 20260906084354 | 22 | 83 | 1.6 | 1.6 | 0.00 | 0.00 | 0.00 | 88 | 1018.4 |
| 20260906083848 | 22 | 118 | 3.2 | 4.8 | 0.00 | 0.00 | 0.00 | 88 | 1018.4 |
| 20260906083344 | 22 | 106 | 0.0 | 0.0 | 0.00 | 0.00 | 0.00 | 87 | 1018.4 |
| 20260906082843 | 22 | 88 | 1.6 | 1.6 | 0.00 | 0.00 | 0.00 | 87 | 1018.3 |
| 20260906082338 | 22 | 105 | 1.6 | 1.6 | 0.00 | 0.00 | 0.00 | 87 | 1018.4 |
| 20260906081835 | 23 | 92 | 1.6 | 1.6 | 0.00 | 0.00 | 0.00 | 87 | 1018.6 |
| 20260906081330 | 23 | 89 | 0.0 | 0.0 | 0.00 | 0.00 | 0.00 | 87 | 1018.5 |
| 20260906080826 | 23 | 61 | 0.0 | 0.0 | 0.00 | 0.00 | 0.00 | 86 | 1018.4 |
| 20260906080322 | 23 | 90 | 0.0 | 0.0 | 0.00 | 0.00 | 0.00 | 87 | 1018.4 |
| 20260906075822 | 23 | 105 | 0.0 | 0.0 | 0.00 | 0.00 | 0.00 | 87 | 1018.2 |
| 20260906075322 | 23 | 93 | 1.6 | 3.2 | 0.00 | 0.00 | 0.00 | 87 | 1018.3 |
| 20260906074817 | 23 | 110 | 0.0 | 1.6 | 0.00 | 0.00 | 0.00 | 87 | 1018.3 |
| 20260906074317 | 23 | 84 | 1.6 | 1.6 | 0.00 | 0.00 | 0.00 | 87 | 1018.0 |
| 20260906073816 | 23 | 88 | 1.6 | 1.6 | 0.00 | 0.00 | 0.00 | 87 | 1018.1 |
| 20260906073311 | 23 | 90 | 0.0 | 0.0 | 0.00 | 0.00 | 0.00 | 87 | 1018.0 |
| 20260906072807 | 23 | 92 | 3.2 | 3.2 | 0.00 | 0.00 | 0.00 | 87 | 1018.4 |
| 20260906072305 | 23 | 90 | 0.0 | 0.0 | 0.00 | 0.00 | 0.00 | 87 | 1018.3 |
| 20260906071758 | 23 | 99 | 0.0 | 1.6 | 0.00 | 0.00 | 0.00 | 87 | 1018.4 |
| 20260906071258 | 23 | 111 | 1.6 | 1.6 | 0.00 | 0.00 | 0.00 | 87 | 1018.4 |
| 20260906070755 | 23 | 111 | 1.6 | 1.6 | 0.00 | 0.00 | 0.00 | 87 | 1018.3 |
| 20260906070250 | 23 | 141 | 0.0 | 0.0 | 0.00 | 0.00 | 0.00 | 87 | 1018.7 |
| 20260906065750 | 23 | 84 | 1.6 | 1.6 | 0.00 | 0.00 | 0.00 | 87 | 1018.3 |
| 20260906065245 | 23 | 97 | 0.0 | 0.0 | 0.00 | 0.00 | 0.00 | 87 | 1018.4 |
| 20260906064741 | 23 | 100 | 1.6 | 4.8 | 0.00 | 0.00 | 0.00 | 87 | 1018.5 |
| 20260906064237 | 23 | 85 | 1.6 | 1.6 | 0.00 | 0.00 | 0.00 | 87 | 1018.5 |
| 20260906063731 | 23 | 100 | 1.6 | 1.6 | 0.00 | 0.00 | 0.00 | 87 | 1018.5 |
| 20260906063227 | 24 | 71 | 0.0 | 0.0 | 0.00 | 0.00 | 0.00 | 87 | 1018.4 |
| 20260906062722 | 24 | 102 | 1.6 | 1.6 | 0.00 | 0.00 | 0.00 | 86 | 1018.5 |
| 20260906062221 | 24 | 90 | 3.2 | 3.2 | 0.00 | 0.00 | 0.00 | 86 | 1018.3 |
| 20260906061717 | 24 | 102 | 3.2 | 4.8 | 0.00 | 0.00 | 0.00 | 86 | 1018.4 |
| 20260906061213 | 24 | 100 | 0.0 | 0.0 | 0.00 | 0.00 | 0.00 | 86 | 1018.4 |
| 20260906060709 | 24 | 108 | 1.6 | 1.6 | 0.00 | 0.00 | 0.00 | 87 | 1018.3 |
| 20260906060206 | 24 | 115 | 0.0 | 0.0 | 0.00 | 0.00 | 0.00 | 87 | 1018.5 |
| 20260906055701 | 24 | 103 | 0.0 | 0.0 | 0.00 | 0.00 | 0.00 | 87 | 1018.2 |
| 20260906055156 | 24 | 103 | 1.6 | 1.6 | 0.00 | 0.00 | 0.00 | 88 | 1018.3 |
| 20260906054651 | 24 | 99 | 1.6 | 1.6 | 0.00 | 0.00 | 0.00 | 89 | 1018.2 |
| 20260906054146 | 24 | 82 | 3.2 | 3.2 | 0.00 | 0.00 | 0.00 | 90 | 1018.5 |
| 20260906053643 | 24 | 88 | 0.0 | 0.0 | 0.00 | 0.00 | 0.00 | 90 | 1018.3 |
| 20260906053138 | 24 | 89 | 1.6 | 1.6 | 0.00 | 0.00 | 0.00 | 90 | 1018.3 |
| 20260906052633 | 25 | 68 | 0.0 | 0.0 | 0.00 | 0.00 | 0.00 | 90 | 1018.5 |
| 20260906052129 | 25 | 69 | 0.0 | 0.0 | 0.00 | 0.00 | 0.00 | 90 | 1018.3 |
| 20260906051626 | 25 | 70 | 0.0 | 0.0 | 0.00 | 0.00 | 0.00 | 89 | 1018.4 |
| 20260906051120 | 25 | 70 | 0.0 | 1.6 | 0.00 | 0.00 | 0.00 | 89 | 1018.2 |
| 20260906050616 | 25 | 70 | 1.6 | 1.6 | 0.00 | 0.00 | 0.00 | 89 | 1018.3 |
| 20260906050111 | 25 | 67 | 0.0 | 0.0 | 0.00 | 0.00 | 0.00 | 89 | 1018.3 |
| 20260906045609 | 25 | 71 | 0.0 | 0.0 | 0.00 | 0.00 | 0.00 | 89 | 1018.3 |
| 20260906045105 | 25 | 72 | 1.6 | 1.6 | 0.00 | 0.00 | 0.00 | 88 | 1018.5 |
| 20260906044600 | 25 | 63 | 0.0 | 1.6 | 0.00 | 0.00 | 0.00 | 88 | 1018.4 |
| 20260906044055 | 25 | 58 | 0.0 | 0.0 | 0.00 | 0.00 | 0.00 | 88 | 1018.4 |
| 20260906043551 | 25 | 66 | 0.0 | 0.0 | 0.00 | 0.00 | 0.00 | 88 | 1018.4 |
| 20260906043047 | 25 | 66 | 0.0 | 0.0 | 0.00 | 0.00 | 0.00 | 88 | 1018.3 |
| 20260906042545 | 25 | 66 | 0.0 | 0.0 | 0.00 | 0.00 | 0.00 | 88 | 1018.2 |
| 20260906042040 | 25 | 66 | 0.0 | 0.0 | 0.00 | 0.00 | 0.00 | 87 | 1018.1 |
| 20260906041537 | 25 | 77 | 1.6 | 1.6 | 0.00 | 0.00 | 0.00 | 87 | 1017.9 |
| 20260906041031 | 26 | 79 | 1.6 | 1.6 | 0.00 | 0.00 | 0.00 | 87 | 1017.8 |
| 20260906040526 | 26 | 73 | 0.0 | 0.0 | 0.00 | 0.00 | 0.00 | 86 | 1017.6 |
| 20260906040022 | 26 | 79 | 0.0 | 1.6 | 0.00 | 0.00 | 0.00 | 86 | 1017.9 |
| 20260906035516 | 26 | 74 | 1.6 | 1.6 | 0.00 | 0.00 | 0.00 | 86 | 1017.8 |
| 20260906035013 | 26 | 60 | 1.6 | 1.6 | 0.00 | 0.00 | 0.00 | 85 | 1018.0 |
| 20260906034512 | 26 | 68 | 0.0 | 0.0 | 0.00 | 0.00 | 0.00 | 85 | 1017.8 |
| 20260906034007 | 26 | 68 | 0.0 | 0.0 | 0.00 | 0.00 | 0.00 | 84 | 1017.6 |
| 20260906033502 | 26 | 75 | 0.0 | 0.0 | 0.00 | 0.00 | 0.00 | 84 | 1017.9 |
| 20260906032958 | 26 | 80 | 1.6 | 1.6 | 0.00 | 0.00 | 0.00 | 83 | 1017.8 |
| 20260906032454 | 27 | 71 | 0.0 | 0.0 | 0.00 | 0.00 | 0.00 | 83 | 1017.9 |
| 20260906031948 | 27 | 67 | 1.6 | 1.6 | 0.00 | 0.00 | 0.00 | 83 | 1017.5 |
| 20260906031444 | 27 | 81 | 1.6 | 1.6 | 0.00 | 0.00 | 0.00 | 82 | 1017.6 |
| 20260906030939 | 27 | 74 | 0.0 | 0.0 | 0.00 | 0.00 | 0.00 | 82 | 1017.8 |
| 20260906030434 | 27 | 70 | 1.6 | 1.6 | 0.00 | 0.00 | 0.00 | 81 | 1017.6 |
| 20260906025928 | 27 | 78 | 1.6 | 1.6 | 0.00 | 0.00 | 0.00 | 81 | 1017.5 |
| 20260906025422 | 27 | 72 | 1.6 | 1.6 | 0.00 | 0.00 | 0.00 | 81 | 1017.2 |
| 20260906024921 | 27 | 78 | 0.0 | 0.0 | 0.00 | 0.00 | 0.00 | 81 | 1017.3 |
| 20260906024421 | 27 | 77 | 0.0 | 0.0 | 0.00 | 0.00 | 0.00 | 80 | 1017.3 |
| 20260906023916 | 27 | 72 | 0.0 | 0.0 | 0.00 | 0.00 | 0.00 | 80 | 1017.3 |
| 20260906023413 | 27 | 95 | 3.2 | 3.2 | 0.00 | 0.00 | 0.00 | 79 | 1017.1 |
| 20260906022912 | 27 | 89 | 1.6 | 1.6 | 0.00 | 0.00 | 0.00 | 80 | 1016.9 |
| 20260906022407 | 27 | 61 | 0.0 | 1.6 | 0.00 | 0.00 | 0.00 | 79 | 1017.0 |
| 20260906021903 | 27 | 82 | 1.6 | 1.6 | 0.00 | 0.00 | 0.00 | 79 | 1016.8 |
| 20260906021402 | 27 | 60 | 0.0 | 1.6 | 0.00 | 0.00 | 0.00 | 79 | 1016.9 |
| 20260906020857 | 28 | 67 | 0.0 | 0.0 | 0.00 | 0.00 | 0.00 | 78 | 1016.7 |
| 20260906020351 | 28 | 74 | 0.0 | 0.0 | 0.00 | 0.00 | 0.00 | 78 | 1016.7 |
| 20260906015846 | 28 | 63 | 0.0 | 0.0 | 0.00 | 0.00 | 0.00 | 77 | 1016.6 |
| 20260906015345 | 28 | 75 | 0.0 | 1.6 | 0.00 | 0.00 | 0.00 | 76 | 1016.6 |
| 20260906014844 | 28 | 68 | 0.0 | 0.0 | 0.00 | 0.00 | 0.00 | 75 | 1016.7 |
| 20260906014339 | 28 | 68 | 0.0 | 0.0 | 0.00 | 0.00 | 0.00 | 75 | 1016.5 |
| 20260906013836 | 28 | 71 | 0.0 | 0.0 | 0.00 | 0.00 | 0.00 | 74 | 1016.7 |
| 20260906013331 | 28 | 71 | 0.0 | 0.0 | 0.00 | 0.00 | 0.00 | 74 | 1016.8 |
| 20260906012826 | 28 | 71 | 0.0 | 0.0 | 0.00 | 0.00 | 0.00 | 74 | 1016.8 |
| 20260906012321 | 28 | 71 | 0.0 | 0.0 | 0.00 | 0.00 | 0.00 | 73 | 1016.6 |
| 20260906011815 | 29 | 71 | 1.6 | 1.6 | 0.00 | 0.00 | 0.00 | 73 | 1016.3 |
| 20260906011310 | 29 | 71 | 0.0 | 0.0 | 0.00 | 0.00 | 0.00 | 72 | 1016.5 |
| 20260906010806 | 29 | 71 | 0.0 | 0.0 | 0.00 | 0.00 | 0.00 | 72 | 1016.5 |
| 20260906010302 | 29 | 71 | 0.0 | 0.0 | 0.00 | 0.00 | 0.00 | 72 | 1016.4 |
| 20260906005757 | 29 | 71 | 0.0 | 0.0 | 0.00 | 0.00 | 0.00 | 71 | 1016.4 |
| 20260906005256 | 29 | 78 | 1.6 | 1.6 | 0.00 | 0.00 | 0.00 | 71 | 1016.4 |
| 20260906004755 | 30 | 79 | 0.0 | 0.0 | 0.00 | 0.00 | 0.00 | 71 | 1016.3 |
| 20260906004249 | 30 | 79 | 0.0 | 0.0 | 0.00 | 0.00 | 0.00 | 70 | 1016.2 |
| 20260906003744 | 30 | 79 | 0.0 | 0.0 | 0.00 | 0.00 | 0.00 | 70 | 1016.1 |
| 20260906003240 | 30 | 73 | 0.0 | 0.0 | 0.00 | 0.00 | 0.00 | 70 | 1016.3 |
| 20260906002735 | 30 | 77 | 0.0 | 0.0 | 0.00 | 0.00 | 0.00 | 69 | 1016.2 |
| 20260906002235 | 30 | 73 | 3.2 | 3.2 | 0.00 | 0.00 | 0.00 | 69 | 1016.2 |
| 20260906001730 | 30 | 89 | 1.6 | 1.6 | 0.00 | 0.00 | 0.00 | 69 | 1016.3 |
| 20260906001225 | 30 | 60 | 0.0 | 0.0 | 0.00 | 0.00 | 0.00 | 68 | 1016.2 |
| 20260906000721 | 30 | 55 | 1.6 | 3.2 | 0.00 | 0.00 | 0.00 | 67 | 1016.2 |
| 20260906000215 | 31 | 92 | 3.2 | 3.2 | 0.00 | 0.00 | 0.00 | 67 | 1016.0 |
| 20260905235715 | 31 | 65 | 1.6 | 1.6 | 0.00 | 0.00 | 0.00 | 66 | 1016.0 |
| 20260905235210 | 31 | 80 | 1.6 | 1.6 | 0.00 | 0.00 | 0.00 | 66 | 1016.0 |
| 20260905234705 | 31 | 84 | 1.6 | 1.6 | 0.00 | 0.00 | 0.00 | 66 | 1016.3 |
| 20260905234201 | 31 | 57 | 1.6 | 1.6 | 0.00 | 0.00 | 0.00 | 67 | 1016.2 |
| 20260905233656 | 31 | 69 | 1.6 | 1.6 | 0.00 | 0.00 | 0.00 | 67 | 1016.1 |
| 20260905233155 | 31 | 63 | 1.6 | 1.6 | 0.00 | 0.00 | 0.00 | 66 | 1016.2 |
| 20260905232650 | 31 | 75 | 1.6 | 1.6 | 0.00 | 0.00 | 0.00 | 65 | 1016.2 |
| 20260905232146 | 31 | 93 | 1.6 | 3.2 | 0.00 | 0.00 | 0.00 | 65 | 1015.9 |
| 20260905231641 | 32 | 80 | 1.6 | 1.6 | 0.00 | 0.00 | 0.00 | 64 | 1015.9 |
| 20260905231137 | 32 | 90 | 1.6 | 3.2 | 0.00 | 0.00 | 0.00 | 64 | 1015.6 |
| 20260905230633 | 32 | 46 | 3.2 | 3.2 | 0.00 | 0.00 | 0.00 | 63 | 1015.8 |
| 20260905230131 | 32 | 99 | 4.8 | 4.8 | 0.00 | 0.00 | 0.00 | 63 | 1016.0 |
| 20260905225625 | 32 | 67 | 1.6 | 1.6 | 0.00 | 0.00 | 0.00 | 63 | 1015.9 |
| 20260905225120 | 32 | 86 | 0.0 | 0.0 | 0.00 | 0.00 | 0.00 | 62 | 1015.9 |
| 20260905224619 | 32 | 69 | 0.0 | 0.0 | 0.00 | 0.00 | 0.00 | 62 | 1015.8 |
| 20260905224119 | 32 | 70 | 1.6 | 1.6 | 0.00 | 0.00 | 0.00 | 62 | 1016.1 |
| 20260905223616 | 32 | 46 | 3.2 | 4.8 | 0.00 | 0.00 | 0.00 | 62 | 1015.9 |
| 20260905223113 | 32 | 78 | 3.2 | 3.2 | 0.00 | 0.00 | 0.00 | 62 | 1016.0 |
| 20260905222613 | 32 | 71 | 0.0 | 1.6 | 0.00 | 0.00 | 0.00 | 62 | 1016.1 |
| 20260905222108 | 32 | 58 | 3.2 | 3.2 | 0.00 | 0.00 | 0.00 | 60 | 1015.9 |
| 20260905221604 | 32 | 54 | 3.2 | 4.8 | 0.00 | 0.00 | 0.00 | 60 | 1015.8 |
| 20260905221100 | 32 | 67 | 4.8 | 8.0 | 0.00 | 0.00 | 0.00 | 61 | 1015.8 |
| 20260905220555 | 32 | 60 | 1.6 | 1.6 | 0.00 | 0.00 | 0.00 | 61 | 1015.9 |
| 20260905220051 | 32 | 59 | 1.6 | 1.6 | 0.00 | 0.00 | 0.00 | 60 | 1015.9 |
| 20260905215550 | 32 | 89 | 1.6 | 1.6 | 0.00 | 0.00 | 0.00 | 61 | 1016.0 |
| 20260905215046 | 32 | 90 | 1.6 | 1.6 | 0.00 | 0.00 | 0.00 | 63 | 1015.9 |
| 20260905214542 | 32 | 98 | 1.6 | 1.6 | 0.00 | 0.00 | 0.00 | 62 | 1016.0 |
| 20260905214037 | 32 | 54 | 0.0 | 1.6 | 0.00 | 0.00 | 0.00 | 62 | 1016.0 |
| 20260905213532 | 32 | 108 | 3.2 | 4.8 | 0.00 | 0.00 | 0.00 | 62 | 1016.1 |
| 20260905213028 | 32 | 103 | 1.6 | 1.6 | 0.00 | 0.00 | 0.00 | 62 | 1016.0 |
| 20260905212522 | 32 | 95 | 3.2 | 3.2 | 0.00 | 0.00 | 0.00 | 63 | 1016.3 |
| 20260905212022 | 32 | 3 | 1.6 | 1.6 | 0.00 | 0.00 | 0.00 | 63 | 1016.3 |
| 20260905211517 | 32 | 57 | 3.2 | 3.2 | 0.00 | 0.00 | 0.00 | 62 | 1016.2 |
| 20260905211013 | 32 | 34 | 3.2 | 8.0 | 0.00 | 0.00 | 0.00 | 62 | 1016.1 |
| 20260905210509 | 31 | 77 | 1.6 | 3.2 | 0.00 | 0.00 | 0.00 | 62 | 1015.9 |
| 20260905210009 | 32 | 62 | 1.6 | 1.6 | 0.00 | 0.00 | 0.00 | 61 | 1016.0 |
| 20260905205503 | 32 | 95 | 3.2 | 4.8 | 0.00 | 0.00 | 0.00 | 61 | 1015.6 |
| 20260905205001 | 32 | 93 | 1.6 | 3.2 | 0.00 | 0.00 | 0.00 | 60 | 1015.6 |
| 20260905204457 | 32 | 97 | 1.6 | 1.6 | 0.00 | 0.00 | 0.00 | 62 | 1015.8 |
| 20260905203956 | 32 | 75 | 4.8 | 4.8 | 0.00 | 0.00 | 0.00 | 60 | 1016.0 |
| 20260905203452 | 33 | 77 | 1.6 | 1.6 | 0.00 | 0.00 | 0.00 | 60 | 1016.0 |
| 20260905202947 | 32 | 75 | 1.6 | 1.6 | 0.00 | 0.00 | 0.00 | 63 | 1015.9 |
| 20260905202442 | 32 | 30 | 1.6 | 3.2 | 0.00 | 0.00 | 0.00 | 62 | 1016.0 |
| 20260905201938 | 32 | 59 | 1.6 | 1.6 | 0.00 | 0.00 | 0.00 | 62 | 1016.2 |
| 20260905201433 | 32 | 86 | 4.8 | 4.8 | 0.00 | 0.00 | 0.00 | 63 | 1016.2 |
| 20260905200927 | 32 | 57 | 1.6 | 3.2 | 0.00 | 0.00 | 0.00 | 63 | 1016.3 |
| 20260905200423 | 32 | 70 | 0.0 | 0.0 | 0.00 | 0.00 | 0.00 | 62 | 1016.3 |
| 20260905195921 | 32 | 61 | 3.2 | 3.2 | 0.00 | 0.00 | 0.00 | 62 | 1016.3 |
| 20260905195416 | 32 | 89 | 1.6 | 1.6 | 0.00 | 0.00 | 0.00 | 64 | 1016.0 |
| 20260905194912 | 32 | 69 | 1.6 | 3.2 | 0.00 | 0.00 | 0.00 | 64 | 1016.5 |
| 20260905194411 | 32 | 26 | 4.8 | 8.0 | 0.00 | 0.00 | 0.00 | 65 | 1016.6 |
| 20260905193906 | 31 | 82 | 1.6 | 1.6 | 0.00 | 0.00 | 0.00 | 66 | 1016.8 |
| 20260905193401 | 31 | 72 | 1.6 | 1.6 | 0.00 | 0.00 | 0.00 | 67 | 1016.9 |
| 20260905192856 | 32 | 48 | 1.6 | 1.6 | 0.00 | 0.00 | 0.00 | 65 | 1017.1 |
| 20260905192351 | 32 | 55 | 1.6 | 1.6 | 0.00 | 0.00 | 0.00 | 65 | 1017.1 |
| 20260905191851 | 32 | 354 | 4.8 | 4.8 | 0.00 | 0.00 | 0.00 | 64 | 1017.0 |
| 20260905191350 | 32 | 57 | 1.6 | 1.6 | 0.00 | 0.00 | 0.00 | 65 | 1017.1 |
| 20260905190849 | 32 | 54 | 3.2 | 3.2 | 0.00 | 0.00 | 0.00 | 65 | 1017.2 |
| 20260905190343 | 32 | 69 | 1.6 | 1.6 | 0.00 | 0.00 | 0.00 | 65 | 1017.5 |
| 20260905185841 | 31 | 61 | 1.6 | 1.6 | 0.00 | 0.00 | 0.00 | 67 | 1017.5 |
| 20260905185336 | 31 | 38 | 1.6 | 3.2 | 0.00 | 0.00 | 0.00 | 67 | 1017.6 |
| 20260905184830 | 31 | 21 | 4.8 | 4.8 | 0.00 | 0.00 | 0.00 | 67 | 1017.6 |
| 20260905184330 | 31 | 344 | 11.3 | 12.9 | 0.00 | 0.00 | 0.00 | 65 | 1017.9 |
| 20260905183828 | 31 | 59 | 1.6 | 1.6 | 0.00 | 0.00 | 0.00 | 68 | 1017.6 |
| 20260905183323 | 31 | 75 | 1.6 | 3.2 | 0.00 | 0.00 | 0.00 | 67 | 1017.6 |
| 20260905182817 | 31 | 46 | 3.2 | 3.2 | 0.00 | 0.00 | 0.00 | 67 | 1017.9 |
| 20260905182312 | 31 | 59 | 1.6 | 1.6 | 0.00 | 0.00 | 0.00 | 68 | 1018.0 |
| 20260905181808 | 30 | 64 | 1.6 | 3.2 | 0.00 | 0.00 | 0.00 | 70 | 1017.6 |
| 20260905181306 | 30 | 13 | 14.5 | 16.1 | 0.00 | 0.00 | 0.00 | 69 | 1018.0 |
| 20260905180800 | 31 | 21 | 4.8 | 4.8 | 0.00 | 0.00 | 0.00 | 69 | 1017.9 |
| 20260905180255 | 30 | 28 | 6.4 | 9.7 | 0.00 | 0.00 | 0.00 | 70 | 1017.8 |
| 20260905175750 | 30 | 10 | 17.7 | 17.7 | 0.00 | 0.00 | 0.00 | 69 | 1018.1 |
| 20260905175245 | 30 | 37 | 6.4 | 8.0 | 0.00 | 0.00 | 0.00 | 70 | 1017.8 |
| 20260905174740 | 30 | 351 | 6.4 | 9.7 | 0.00 | 0.00 | 0.00 | 73 | 1018.0 |
| 20260905174236 | 30 | 56 | 9.7 | 11.3 | 0.00 | 0.00 | 0.00 | 72 | 1017.8 |
| 20260905173732 | 30 | 8 | 6.4 | 8.0 | 0.00 | 0.00 | 0.00 | 71 | 1018.1 |
| 20260905173227 | 30 | 345 | 8.0 | 9.7 | 0.00 | 0.00 | 0.00 | 70 | 1018.2 |
| 20260905172727 | 30 | 5 | 11.3 | 12.9 | 0.00 | 0.00 | 0.00 | 70 | 1017.9 |